Time,TemperatureF,DewpointF,PressureIn,WindDirection,WindDirectionDegrees,WindSpeedMPH,WindSpeedGustMPH,Humidity,HourlyPrecipIn,Conditions,Clouds,dailyrainin,SoftwareType,DateUTC
2013-04-12 00:06:00,31.0,28.0,29.71,North,3,9.0,-999.0,90,-99.99,,,0.00,weatherlink.com 1.10,2013-04-12 05:06:00,
2013-04-12 00:20:00,30.7,28.0,29.71,North,360,5.0,-999.0,90,-99.99,,,0.00,weatherlink.com 1.10,2013-04-12 05:20:00,
2013-04-12 00:34:00,30.5,28.0,29.71,NNE,13,11.0,-999.0,90,-99.99,,,0.00,weatherlink.com 1.10,2013-04-12 05:34:00,
2013-04-12 00:49:00,30.3,28.0,29.71,North,354,10.0,-999.0,90,-99.99,,,0.00,weatherlink.com 1.10,2013-04-12 05:49:00,
2013-04-12 01:03:00,29.9,27.0,29.71,NNW,346,9.0,-999.0,90,-99.99,,,0.00,weatherlink.com 1.10,2013-04-12 06:03:00,
2013-04-12 01:17:00,29.4,27.0,29.72,North,358,6.0,-999.0,90,-99.99,,,0.00,weatherlink.com 1.10,2013-04-12 06:17:00,
2013-04-12 01:32:00,29.1,27.0,29.71,North,355,7.0,-999.0,90,-99.99,,,0.00,weatherlink.com 1.10,2013-04-12 06:32:00,
2013-04-12 02:00:00,28.8,26.0,29.71,North,7,4.0,-999.0,90,-99.99,,,0.00,weatherlink.com 1.10,2013-04-12 07:00:00,
2013-04-12 02:14:00,28.8,26.0,29.71,NNW,337,5.0,-999.0,90,-99.99,,,0.00,weatherlink.com 1.10,2013-04-12 07:14:00,
2013-04-12 02:28:00,28.6,26.0,29.70,NNW,346,6.0,-999.0,90,-99.99,,,0.00,weatherlink.com 1.10,2013-04-12 07:28:00,
2013-04-12 02:43:00,28.4,26.0,29.71,North,10,10.0,-999.0,90,-99.99,,,0.00,weatherlink.com 1.10,2013-04-12 07:43:00,
2013-04-12 02:57:00,28.3,26.0,29.71,NNW,336,4.0,-999.0,90,-99.99,,,0.00,weatherlink.com 1.10,2013-04-12 07:57:00,
2013-04-12 03:11:00,28.2,26.0,29.71,NNE,23,5.0,-999.0,90,-99.99,,,0.00,weatherlink.com 1.10,2013-04-12 08:11:00,
2013-04-12 03:25:00,28.0,25.0,29.71,NNW,345,6.0,-999.0,89,-99.99,,,0.00,weatherlink.com 1.10,2013-04-12 08:25:00,
2013-04-12 03:40:00,27.9,25.0,29.71,North,11,5.0,-999.0,89,-99.99,,,0.00,weatherlink.com 1.10,2013-04-12 08:40:00,
2013-04-12 03:54:00,27.8,25.0,29.71,North,360,4.0,-999.0,89,-99.99,,,0.00,weatherlink.com 1.10,2013-04-12 08:54:00,
2013-04-12 04:08:00,27.7,25.0,29.70,NNW,327,4.0,-999.0,89,-99.99,,,0.00,weatherlink.com 1.10,2013-04-12 09:08:00,
2013-04-12 04:22:00,27.6,25.0,29.70,North,351,9.0,-999.0,89,-99.99,,,0.00,weatherlink.com 1.10,2013-04-12 09:22:00,
2013-04-12 04:37:00,27.5,25.0,29.71,North,360,7.0,-999.0,89,-99.99,,,0.00,weatherlink.com 1.10,2013-04-12 09:37:00,
2013-04-12 04:51:00,27.5,25.0,29.71,NNW,347,5.0,-999.0,89,-99.99,,,0.00,weatherlink.com 1.10,2013-04-12 09:51:00,
2013-04-12 05:05:00,27.4,25.0,29.71,North,6,5.0,-999.0,89,-99.99,,,0.00,weatherlink.com 1.10,2013-04-12 10:05:00,
2013-04-12 05:20:00,27.4,25.0,29.71,NNW,337,4.0,-999.0,89,-99.99,,,0.00,weatherlink.com 1.10,2013-04-12 10:20:00,
2013-04-12 05:34:00,27.4,25.0,29.71,North,352,3.0,-999.0,90,-99.99,,,0.00,weatherlink.com 1.10,2013-04-12 10:34:00,
2013-04-12 05:48:00,27.4,25.0,29.71,NNW,336,4.0,-999.0,90,-99.99,,,0.00,weatherlink.com 1.10,2013-04-12 10:48:00,
2013-04-12 06:02:00,27.3,24.0,29.71,North,349,4.0,-999.0,89,-99.99,,,0.00,weatherlink.com 1.10,2013-04-12 11:02:00,
2013-04-12 06:17:00,27.3,24.0,29.71,NNW,342,3.0,-999.0,89,-99.99,,,0.00,weatherlink.com 1.10,2013-04-12 11:17:00,
2013-04-12 06:31:00,27.2,25.0,29.71,NW,314,2.0,-999.0,90,-99.99,,,0.00,weatherlink.com 1.10,2013-04-12 11:31:00,
2013-04-12 06:45:00,27.2,25.0,29.71,NW,304,4.0,-999.0,90,-99.99,,,0.00,weatherlink.com 1.10,2013-04-12 11:45:00,
2013-04-12 07:00:00,27.2,25.0,29.71,NW,314,4.0,-999.0,90,-99.99,,,0.00,weatherlink.com 1.10,2013-04-12 12:00:00,
2013-04-12 07:14:00,27.3,25.0,29.71,NW,320,2.0,-999.0,90,-99.99,,,0.00,weatherlink.com 1.10,2013-04-12 12:14:00,
2013-04-12 07:28:00,27.5,25.0,29.71,WNW,303,2.0,-999.0,90,-99.99,,,0.00,weatherlink.com 1.10,2013-04-12 12:28:00,
2013-04-12 07:42:00,27.7,25.0,29.71,NW,316,3.0,-999.0,90,-99.99,,,0.00,weatherlink.com 1.10,2013-04-12 12:42:00,
2013-04-12 07:57:00,28.0,25.0,29.71,WNW,301,4.0,-999.0,90,-99.99,,,0.00,weatherlink.com 1.10,2013-04-12 12:57:00,
2013-04-12 08:11:00,28.4,26.0,29.71,NNW,336,3.0,-999.0,90,-99.99,,,0.00,weatherlink.com 1.10,2013-04-12 13:11:00,
2013-04-12 08:25:00,28.7,26.0,29.72,NW,306,4.0,-999.0,89,-99.99,,,0.00,weatherlink.com 1.10,2013-04-12 13:25:00,
2013-04-12 08:39:00,28.8,26.0,29.72,NW,308,3.0,-999.0,89,-99.99,,,0.00,weatherlink.com 1.10,2013-04-12 13:39:00,
2013-04-12 08:54:00,29.0,26.0,29.72,WNW,285,2.0,-999.0,89,-99.99,,,0.00,weatherlink.com 1.10,2013-04-12 13:54:00,
2013-04-12 09:08:00,29.1,26.0,29.73,NW,307,4.0,-999.0,88,-99.99,,,0.00,weatherlink.com 1.10,2013-04-12 14:08:00,
2013-04-12 09:22:00,29.4,26.0,29.73,WNW,297,5.0,-999.0,88,-99.99,,,0.00,weatherlink.com 1.10,2013-04-12 14:22:00,
2013-04-12 09:37:00,29.7,27.0,29.73,WNW,301,4.0,-999.0,88,-99.99,,,0.00,weatherlink.com 1.10,2013-04-12 14:37:00,
2013-04-12 09:51:00,29.8,26.0,29.73,WNW,287,7.0,-999.0,87,-99.99,,,0.00,weatherlink.com 1.10,2013-04-12 14:51:00,
2013-04-12 10:05:00,30.0,27.0,29.73,WNW,291,5.0,-999.0,87,-99.99,,,0.00,weatherlink.com 1.10,2013-04-12 15:05:00,
2013-04-12 10:19:00,30.3,27.0,29.74,NW,305,5.0,-999.0,87,-99.99,,,0.00,weatherlink.com 1.10,2013-04-12 15:19:00,
2013-04-12 10:34:00,30.4,27.0,29.74,NW,306,4.0,-999.0,86,-99.99,,,0.01,weatherlink.com 1.10,2013-04-12 15:34:00,
2013-04-12 10:48:00,30.7,27.0,29.74,WNW,296,4.0,-999.0,86,-99.99,,,0.01,weatherlink.com 1.10,2013-04-12 15:48:00,
2013-04-12 11:02:00,30.9,27.0,29.74,WNW,289,7.0,-999.0,86,-99.99,,,0.02,weatherlink.com 1.10,2013-04-12 16:02:00,
2013-04-12 11:17:00,31.2,28.0,29.74,West,275,4.0,-999.0,87,-99.99,,,0.03,weatherlink.com 1.10,2013-04-12 16:17:00,
2013-04-12 11:45:00,32.6,28.0,29.74,NW,308,5.0,-999.0,82,-99.99,,,0.05,weatherlink.com 1.10,2013-04-12 16:45:00,
2013-04-12 11:59:00,32.8,27.0,29.74,NNW,329,6.0,-999.0,80,-99.99,,,0.06,weatherlink.com 1.10,2013-04-12 16:59:00,
2013-04-12 12:14:00,32.9,27.0,29.75,NW,324,6.0,-999.0,79,-99.99,,,0.06,weatherlink.com 1.10,2013-04-12 17:14:00,
2013-04-12 12:28:00,33.2,27.0,29.75,NW,320,4.0,-999.0,78,-99.99,,,0.07,weatherlink.com 1.10,2013-04-12 17:28:00,
2013-04-12 12:43:00,33.7,28.0,29.75,West,264,10.0,-999.0,78,-99.99,,,0.08,weatherlink.com 1.10,2013-04-12 17:43:00,
2013-04-12 12:57:00,33.5,27.0,29.75,WNW,297,7.0,-999.0,78,-99.99,,,0.09,weatherlink.com 1.10,2013-04-12 17:57:00,
2013-04-12 13:11:00,33.7,28.0,29.76,West,279,5.0,-999.0,79,-99.99,,,0.09,weatherlink.com 1.10,2013-04-12 18:11:00,
2013-04-12 13:26:00,33.8,28.0,29.75,West,277,6.0,-999.0,78,-99.99,,,0.10,weatherlink.com 1.10,2013-04-12 18:26:00,
2013-04-12 14:37:00,35.0,28.0,29.77,WNW,286,5.0,-999.0,75,-99.99,,,0.12,weatherlink.com 1.10,2013-04-12 19:37:00,
2013-04-12 14:52:00,34.6,27.0,29.77,West,281,4.0,-999.0,75,-99.99,,,0.13,weatherlink.com 1.10,2013-04-12 19:52:00,
2013-04-12 15:06:00,34.5,27.0,29.77,WNW,282,9.0,-999.0,75,-99.99,,,0.13,weatherlink.com 1.10,2013-04-12 20:06:00,
2013-04-12 15:20:00,34.4,27.0,29.77,NW,310,6.0,-999.0,75,-99.99,,,0.13,weatherlink.com 1.10,2013-04-12 20:20:00,
2013-04-12 15:34:00,34.6,27.0,29.78,West,278,10.0,-999.0,74,-99.99,,,0.14,weatherlink.com 1.10,2013-04-12 20:34:00,
2013-04-12 15:49:00,34.7,27.0,29.78,NW,310,5.0,-999.0,73,-99.99,,,0.14,weatherlink.com 1.10,2013-04-12 20:49:00,
2013-04-12 16:03:00,34.8,27.0,29.78,WNW,284,11.0,-999.0,73,-99.99,,,0.14,weatherlink.com 1.10,2013-04-12 21:03:00,
2013-04-12 16:17:00,34.7,27.0,29.79,WNW,288,6.0,-999.0,73,-99.99,,,0.15,weatherlink.com 1.10,2013-04-12 21:17:00,
2013-04-12 16:31:00,34.8,27.0,29.79,NW,307,4.0,-999.0,74,-99.99,,,0.15,weatherlink.com 1.10,2013-04-12 21:31:00,
2013-04-12 17:00:00,34.6,28.0,29.80,WNW,289,2.0,-999.0,76,-99.99,,,0.16,weatherlink.com 1.10,2013-04-12 22:00:00,
2013-04-12 17:14:00,34.8,28.0,29.80,West,266,10.0,-999.0,76,-99.99,,,0.17,weatherlink.com 1.10,2013-04-12 22:14:00,
2013-04-12 17:28:00,34.4,28.0,29.80,WNW,293,9.0,-999.0,78,-99.99,,,0.17,weatherlink.com 1.10,2013-04-12 22:28:00,
2013-04-12 17:43:00,33.7,28.0,29.81,WNW,292,7.0,-999.0,81,-99.99,,,0.18,weatherlink.com 1.10,2013-04-12 22:43:00,
2013-04-12 17:57:00,33.9,28.0,29.81,NNW,333,6.0,-999.0,79,-99.99,,,0.18,weatherlink.com 1.10,2013-04-12 22:57:00,
2013-04-12 18:12:00,34.3,28.0,29.82,NW,323,5.0,-999.0,78,-99.99,,,0.18,weatherlink.com 1.10,2013-04-12 23:12:00,
2013-04-12 18:26:00,34.1,28.0,29.82,WNW,303,5.0,-999.0,79,-99.99,,,0.19,weatherlink.com 1.10,2013-04-12 23:26:00,
2013-04-12 18:40:00,34.2,28.0,29.82,WNW,293,4.0,-999.0,78,-99.99,,,0.19,weatherlink.com 1.10,2013-04-12 23:40:00,
2013-04-12 18:54:00,34.0,27.0,29.83,WNW,288,4.0,-999.0,75,-99.99,,,0.19,weatherlink.com 1.10,2013-04-12 23:54:00,
2013-04-12 19:09:00,33.8,27.0,29.83,NW,314,5.0,-999.0,76,-99.99,,,0.19,weatherlink.com 1.10,2013-04-13 00:09:00,
2013-04-12 19:23:00,33.6,27.0,29.83,NW,317,4.0,-999.0,77,-99.99,,,0.19,weatherlink.com 1.10,2013-04-13 00:23:00,
2013-04-12 19:37:00,33.4,28.0,29.84,NW,316,4.0,-999.0,79,-99.99,,,0.19,weatherlink.com 1.10,2013-04-13 00:37:00,
2013-04-12 19:52:00,33.0,28.0,29.84,WNW,302,5.0,-999.0,80,-99.99,,,0.19,weatherlink.com 1.10,2013-04-13 00:52:00,
2013-04-12 20:06:00,32.6,27.0,29.84,NNW,328,4.0,-999.0,80,-99.99,,,0.19,weatherlink.com 1.10,2013-04-13 01:06:00,
2013-04-12 20:20:00,32.4,27.0,29.84,NW,312,2.0,-999.0,81,-99.99,,,0.19,weatherlink.com 1.10,2013-04-13 01:20:00,
2013-04-12 20:34:00,32.1,27.0,29.84,NNW,331,2.0,-999.0,81,-99.99,,,0.19,weatherlink.com 1.10,2013-04-13 01:34:00,
2013-04-12 20:49:00,31.8,27.0,29.85,NW,325,3.0,-999.0,83,-99.99,,,0.19,weatherlink.com 1.10,2013-04-13 01:49:00,
2013-04-12 21:03:00,31.4,27.0,29.85,NW,312,4.0,-999.0,85,-99.99,,,0.19,weatherlink.com 1.10,2013-04-13 02:03:00,
2013-04-12 21:17:00,31.2,28.0,29.86,WNW,302,3.0,-999.0,86,-99.99,,,0.19,weatherlink.com 1.10,2013-04-13 02:17:00,
2013-04-12 21:31:00,31.2,28.0,29.86,NW,316,2.0,-999.0,86,-99.99,,,0.19,weatherlink.com 1.10,2013-04-13 02:31:00,
2013-04-12 21:46:00,31.2,28.0,29.86,NW,314,2.0,-999.0,87,-99.99,,,0.19,weatherlink.com 1.10,2013-04-13 02:46:00,
2013-04-12 22:00:00,31.0,28.0,29.87,NNW,331,2.0,-999.0,87,-99.99,,,0.19,weatherlink.com 1.10,2013-04-13 03:00:00,
2013-04-12 22:14:00,30.8,27.0,29.87,NNW,329,1.0,-999.0,87,-99.99,,,0.19,weatherlink.com 1.10,2013-04-13 03:14:00,
2013-04-12 22:28:00,30.6,27.0,29.87,NW,319,1.0,-999.0,87,-99.99,,,0.19,weatherlink.com 1.10,2013-04-13 03:28:00,
2013-04-12 22:43:00,30.5,27.0,29.87,WNW,302,2.0,-999.0,88,-99.99,,,0.19,weatherlink.com 1.10,2013-04-13 03:43:00,
2013-04-12 22:57:00,30.4,27.0,29.86,NW,304,3.0,-999.0,88,-99.99,,,0.19,weatherlink.com 1.10,2013-04-13 03:57:00,
2013-04-12 23:11:00,30.2,27.0,29.86,WNW,291,1.0,-999.0,88,-99.99,,,0.19,weatherlink.com 1.10,2013-04-13 04:11:00,
2013-04-12 23:25:00,29.9,27.0,29.86,WNW,290,1.0,-999.0,88,-99.99,,,0.19,weatherlink.com 1.10,2013-04-13 04:25:00,
2013-04-12 23:40:00,29.7,27.0,29.86,WNW,290,1.0,-999.0,89,-99.99,,,0.19,weatherlink.com 1.10,2013-04-13 04:40:00,
2013-04-12 23:54:00,29.6,27.0,29.86,WNW,290,3.0,-999.0,89,-99.99,,,0.19,weatherlink.com 1.10,2013-04-13 04:54:00,